Create Custom Reports and Graphics: Custom Report

North Region Latest Observations

Map

10 Minute Data

Winnemucca/Elko Latest Observations

Map

10 Minute Data

South Region Latest Observations

Map

10 Minute Data

Latest Observation

67 Stations

10 Minute Data
as of 5/10/26 5:08 AM PDT
Station Date Time Temp (°F) RH (%) Dew Pt (°F) Wind Spd (mph) Wind Dir (°) Wind Gust (mph) Wind Gst Dir (°) Latest Rain (In) Soil Moist (%) Soil Temp (°F) Daily Rain (In) Daily Min Temp (°F) Daily Max Temp (°F) Daily Max Wind (mph)
Hobart Mills 5/10/26 0450 36.4   1.6 76   20 29.5   7.4 0.0   0.5 N | 0 0.0   1.9 W | 274 0.00 - 32.0   0.0 0.03 28.9   0.0 73.1   2.5 9.4   0.9
Prosser Dam 5/10/26 0500 35.1   2.5 94   3 33.7   3.2 0.0   0.2 N | 0 0.0   1.4 NW | 316 0.00 21.2   1.2 54.4   1.7 0.00 34.5   2.1 43.0   0.9 4.0   0.1
West Incline Village 5/10/26 0500 57.2   8.6 20   39 16.4   18.7 1.0   2.0 NE | 36 5.1   1.5 NE | 46 0.00 32.0   0.5 47.9   0.8 0.00 53.3   5.1 58.9   7.7 6.8   2.5
Incline Village (Fairview Blvd) 5/10/26 0500 55.3   6.7 22   41 17.2   19.4 0.1   0.4 NNE | 29 1.5   0.6 NNE | 25 0.00 25.8   0.3 55.1   1.6 0.00 55.2   7.1 59.3   7.9 4.7   2.0
Incline Village (Diamond Peak) 5/10/26 0500 56.9   6.2 20   26 16.1   14.5 0.4   1.8 W | 280 1.9   4.5 W | 269 0.00 9.1   0.2 51.9   2.0 0.00 56.6   7.0 59.8   8.4 8.9   1.5
Incline Village (Mill Creek) 5/10/26 0500 51.2   3.5 38   24 26.5   8.9 0.0   0.0 N | 0 0.0   0.0 E | 88 0.00 10.9   0.1 48.5   1.0 0.00 50.4   2.8 60.7   10.6 3.0   0.5
Incline Village (Lakeshore Blvd) 5/10/26 0500 41.7   1.3 62   22 29.8   6.3 1.3   0.7 NE | 40 2.6   0.6 ENE | 60 0.00 30.6   0.7 53.5   0.4 0.00 41.5   1.2 47.1   3.1 4.3   0.9
Glenbrook 5/10/26 0500 44.8   2.5 54   26 29.4   7.5 0.0   0.0 N | 0 0.0   0.0 ESE | 111 0.00 44.3   0.0 46.7   0.4 0.00 44.1   2.5 49.4   3.5 5.7   2.6
Zephyr Cove 5/10/26 0500 49.0   4.3 43   28 27.3   8.6 0.0   0.0 N | 0 0.0   0.0 SE | 141 0.00 - 34.3   0.0 0.00 48.8   4.2 52.7   2.6 0.0   0.6
Kingsbury Grade 5/10/26 0500 47.2   3.9 41   31 24.7   10.4 1.1   1.1 NNE | 16 3.2   3.2 NNE | 16 0.00 7.8   0.7 57.7   2.0 0.00 45.9   3.1 52.1   5.0 4.3   0.5
South Daggett Pass (Ridge) 5/10/26 0500 57.1   6.8 22   34 18.8   16.3 3.8   1.6 ESE | 121 5.8   9.1 ESE | 114 0.00 6.7   0.0 51.6   1.3 0.00 56.9   6.9 58.5   3.9 7.9   7.0
Palomino Valley 5/10/26 0500 43.4   4.6 44   13 23.1   10.6 0.0   2.6 N | 0 0.0   4.3 E | 85 0.00 7.2   0.0 70.6   1.0 0.00 42.8   3.9 54.0   3.6 6.2   2.4
East Cold Springs 5/10/26 0500 56.4   4.3 27   28 23.2   13.5 3.4   0.6 W | 268 4.3   0.7 W | 266 0.00 1.8   0.0 59.7   0.5 0.00 55.5   5.1 62.2   5.0 7.5   4.0
Peavine 5/10/26 0500 57.0   8.6 24   25 20.6   9.6 9.5   3.9 S | 187 13.0   5.6 SSW | 194 0.00 - 53.4   0.0 0.00 54.6   7.3 60.1   2.8 13.8   6.3
West Verdi Peak 5/10/26 0500 57.2   7.8 22   28 18.9   12.7 0.0   1.4 SSW | 204 0.7   2.1 WSW | 237 0.00 18.3   1.3 56.2   0.7 0.00 53.4   4.6 59.6   4.6 3.5   2.5
West Verdi 5/10/26 0500 47.0   0.6 52   17 30.2   7.8 0.0   1.7 N | 0 0.0   3.0 WNW | 284 0.00 7.8   0.1 66.5   1.2 0.00 46.7   0.4 54.6   0.9 7.1   0.6
South Verdi 5/10/26 0500 58.4   3.0 26   20 23.5   11.3 6.1   0.5 WSW | 248 7.6   0.4 WSW | 248 0.00 16.0   0.3 63.1   1.1 0.00 55.6   0.9 63.5   3.3 14.2   1.2
Northwest Reno 5/10/26 0500 58.7   2.1 26   15 23.6   9.5 0.0   5.7 N | 0 0.0   10.2 NW | 311 0.00 24.2   0.0 68.1   1.5 0.00 57.8   1.7 64.8   1.2 7.6   9.9
North Lawton 5/10/26 0500 52.6   1.4 38   10 27.8   7.0 5.7   2.2 W | 271 7.7   2.9 WSW | 256 0.00 - 60.4   0.0 0.00 51.3   1.2 58.8   1.1 12.0   0.6
West Reno (Mogul) 5/10/26 0500 52.8   1.0 37   20 27.4   9.9 0.5   0.1 SSW | 212 5.2   0.1 SW | 226 0.00 36.1   0.6 64.4   0.9 0.00 52.0   1.4 65.1   2.6 12.0   0.8
Caughlin (Hunter Lake Trail) 9/16/25 0800 59.7   3.5 41   11 35.9   2.7 0.0   0.0 N | 0 0.0   0.0 ENE | 66 0.00 15.7   0.0 69.8   0.5 0.00 55.7   3.2 67.7   9.1 9.4   0.9
ArrowCreek 5/10/26 0500 53.9   1.0 33   18 25.5   9.8 4.9   0.1 S | 183 7.0   0.6 SSE | 167 0.00 - 32.0   0.0 0.00 51.6   0.0 62.6   1.8 11.0   1.9
Tracy 5/10/26 0500 52.9   2.7 35   19 25.8   13.4 0.0   0.5 N | 0 0.0   1.9 SE | 132 0.00 8.2   0.0 69.8   0.8 0.00 51.7   3.3 61.1   5.3 4.3   4.6
Virginia Highlands 5/10/26 0500 62.0   7.9 16   32 15.5   19.2 2.1   1.7 S | 174 5.5   0.2 SE | 131 0.00 8.1   0.1 60.1   1.1 0.00 59.6   5.6 65.5   6.7 7.3   0.1
Virginia City 5/10/26 0500 60.6   4.5 17   20 15.2   14.6 1.3   0.5 N | 8 2.9   2.0 NNE | 24 0.00 8.4   0.0 60.8   1.1 0.00 59.5   5.0 63.9   3.1 5.1   22.0
Six Mile Canyon 9/9/25 0630 60.2   9.6 37   6 33.7   4.8 4.1   2.5 W | 277 6.1   2.9 WNW | 286 0.00 12.5   0.0 75.5   0.7 0.00 57.9   7.6 64.4   1.9 7.0   3.9
Mt Rose Highway 4/30/26 0510 40.8   4.7 47   13 22.3   1.3 2.3   0.2 WSW | 243 4.8   2.1 WSW | 246 0.00 24.1   0.3 43.0   0.8 0.00 40.5   4.7 43.0   5.3 7.7   0.4
Pleasant Valley 5/10/26 0500 49.0   0.0 57   6 34.2   2.5 0.8   0.5 SE | 135 3.7   1.5 SSE | 152 0.00 2.9   0.0 67.8   1.6 0.00 48.5   0.9 55.6   0.6 8.4   2.2
New Washoe City 5/10/26 0500 50.6   1.6 34   22 23.0   13.7 4.6   2.1 NNE | 29 7.2   2.6 NE | 39 0.00 4.5   0.1 64.5   1.4 0.00 49.3   2.2 55.2   0.9 11.3   1.1
Franktown Creek 5/10/26 0500 47.5   0.7 45   21 27.3   10.0 0.0   0.8 N | 0 0.0   4.2 W | 280 0.00 11.2   0.0 60.1   1.2 0.00 47.3   0.2 52.6   0.2 4.0   0.5
Musgrove Creek 5/10/26 0500 58.3   3.2 23   30 20.3   17.7 1.1   0.7 SW | 222 2.2   0.2 WSW | 240 0.00 40.0   1.7 55.3   0.4 0.00 57.1   2.8 61.4   1.7 3.0   0.4
East Carson 11/23/24 0110 28.6   28.4 - - 4.7   11.0 SW | 220 14.7   10.1 SW | 219 0.02 - 50.9   0.1 0.02 -25.9   79.1 42.9   14.6 16.0   10.7
Kings Canyon 5/10/26 0500 50.7   2.0 38   23 26.0   9.9 2.8   0.8 S | 191 3.7   1.2 SSW | 192 0.00 14.0   0.5 61.6   1.2 0.00 48.1   0.0 56.5   2.1 7.1   0.7
Carson City (Voltaire Canyon) 5/10/26 0500 59.1   2.6 28   21 26.4   11.4 0.2   0.8 ENE | 69 2.5   0.1 ENE | 74 0.00 2.9   0.0 65.2   1.5 0.00 57.4   1.4 66.7   3.8 10.3   1.9
Jacks Valley 5/10/26 0500 51.9   0.2 35   18 25.4   10.6 0.6   0.6 SSE | 163 1.6   1.6 SSE | 159 0.00 13.0   0.4 67.5   1.3 0.00 51.4   0.1 59.0   0.5 3.0   0.9
Genoa 5/10/26 0500 53.1   5.0 40   25 29.6   7.3 1.6   1.5 SSW | 209 2.6   0.9 SW | 215 0.00 6.4   0.7 59.8   1.3 0.00 49.3   1.3 58.4   0.4 3.0   0.2
South Genoa (Walleys Hot Springs) 5/10/26 0500 45.8   0.8 77   7 39.0   1.6 0.0   0.9 N | 0 0.0   2.6 ESE | 122 0.00 13.9   0.2 67.3   1.2 0.00 43.3   0.9 52.8   2.3 2.6   3.7
SW Gardnerville (HWY 88) 5/10/26 0500 44.3   1.0 72   3 35.7   2.1 0.0   1.9 N | 0 0.0   2.9 NNE | 31 0.00 3.4   0.1 62.7   1.3 0.00 44.0   1.2 53.0   1.1 5.2   2.2
Sheridan 5/10/26 0500 54.0   5.8 36   27 27.8   8.7 1.9   1.1 W | 270 3.4   1.1 SW | 233 0.00 3.4   0.5 64.8   1.1 0.00 48.6   2.8 57.0   0.0 5.0   1.7
Ruhenstroth 5/10/26 0500 48.0   0.9 42   24 26.1   10.2 0.0   1.6 N | 0 0.0   4.0 ENE | 60 0.00 12.4   0.1 64.2   1.5 0.00 47.4   0.9 58.5   3.3 5.5   1.5
Double Spring 5/10/26 0500 39.8   3.7 61   7 27.2   6.3 0.1   4.6 WNW | 287 0.7   5.3 WNW | 287 0.00 31.3   0.0 61.7   1.2 0.00 39.6   2.5 48.2   1.3 2.7   3.4
North Topaz Lake 5/10/26 0500 58.2   2.6 26   17 24.0   9.9 2.7   1.7 SW | 233 3.7   1.2 WSW | 253 0.00 9.4   0.0 61.0   0.6 0.00 58.0   2.6 63.3   2.4 6.6   0.1
Wild Oat Mountain 5/10/26 0500 57.4   3.5 28   18 24.3   9.4 0.5   5.3 E | 80 1.4   6.3 ESE | 102 0.00 16.9   0.0 63.8   1.6 0.00 57.2   3.4 62.8   1.3 4.5   5.5
Smith Valley 5/10/26 0500 56.2   2.0 32   16 26.6   8.2 2.9   2.1 NW | 326 4.2   1.6 NNW | 332 0.00 6.0   0.1 68.0   1.5 0.00 49.3   2.3 63.8   0.5 8.4   1.0
Pine Grove Mountain 5/10/26 0500 55.2   7.0 19   18 13.4   9.9 5.8   1.1 E | 82 7.6   2.7 E | 87 0.00 20.0   0.6 55.1   0.9 0.00 55.2   7.1 57.3   4.2 10.4   1.9
Paradise Hill 5/10/26 0500 48.0   3.3 32   0 19.3   2.6 0.5   0.4 SSE | 168 4.2   1.2 SSE | 158 0.00 8.0   0.0 64.2   1.1 0.00 45.0   2.5 61.7   2.2 17.1   9.7
Winnemucca 5/10/26 0500 49.5   3.5 29   1 18.4   2.5 4.2   2.2 E | 81 5.6   1.9 ENE | 68 0.00 5.9   0.0 63.6   0.8 0.00 44.6   7.9 59.3   2.1 11.7   2.8
NE Elko 5/10/26 0500 32.3   5.9 54   1 17.5   5.2 4.9   3.6 E | 90 8.1   4.7 ESE | 103 0.00 12.5   0.0 60.2   0.5 0.00 32.0   4.4 41.6   15.1 8.1   0.5
North Elko 5/10/26 0500 46.4   3.7 30   0 16.5   3.1 0.2   9.8 E | 80 2.2   8.7 E | 83 0.00 28.6   0.1 60.5   0.1 0.00 45.8   0.7 55.8   2.4 12.7   0.7
South Elko 5/10/26 0500 68.8   13.9 38   8 41.7   18.0 0.6   5.4 N | 2 4.6   2.9 ENE | 74 0.00 18.3   0.1 60.2   0.8 0.00 48.7   3.4 - 12.2   1.4
Lamoille 1/28/26 1720 33.2   0.5 65   17 22.8   6.3 5.8   1.5 SSE | 166 7.7   1.9 SE | 139 0.00 12.2   0.0 33.4   0.1 0.02 23.5   2.0 36.5   5.9 25.6   17.4
Reid Gardner Sub 5/10/26 0500 80.3   17.7 10   16 19.0   7.9 3.7   1.1 NNW | 339 13.2   6.1 NW | 306 0.00 25.8   0.1 78.0   1.6 0.00 77.1   16.4 83.5   8.8 17.5   7.5
Corn Creek 5/10/26 0500 77.4   1.1 13   3 22.7   6.5 8.5   0.3 WSW | 239 12.7   0.5 WSW | 238 0.00 4.0   0.0 82.6   1.9 0.00 72.7   1.7 80.3   0.3 12.7   0.9
Lucky Strike 5/10/26 0500 68.7   1.7 13   5 16.4   8.5 4.1   4.3 WNW | 282 10.2   4.5 W | 264 0.00 4.6   0.0 74.8   1.6 0.00 67.1   1.4 73.4   0.4 14.3   2.1
Lower Angel Peak 5/10/26 0500 56.6   0.2 23   3 19.4   3.0 5.9   0.2 SSW | 197 9.4   1.6 SSW | 209 0.00 9.6   0.4 62.3   1.3 0.00 55.5   0.1 63.5   0.3 10.4   1.1
Angel Peak 5/10/26 0500 55.8   1.2 20   2 15.9   3.6 7.0   5.9 SE | 131 8.3   6.1 SE | 131 0.00 3.5   0.4 58.1   1.2 0.00 55.6   0.6 57.9   0.4 10.2   1.9
Upper Kyle Canyon 5/10/26 0500 51.6   0.8 27   5 18.8   4.6 3.8   0.2 NW | 318 6.1   1.2 NW | 313 0.00 13.0   0.3 61.6   0.9 0.00 50.5   1.4 59.4   3.1 7.9   1.7
Mt Charleston 5/10/26 0500 56.4   0.3 24   5 19.7   5.2 4.6   0.1 WSW | 254 7.2   0.9 W | 270 0.00 18.1   0.0 52.8   1.4 0.00 54.5   1.5 57.9   2.9 8.4   1.0
Mid Kyle Canyon 5/10/26 0500 57.0   1.7 25   3 21.9   4.2 12.1   1.2 WNW | 295 16.2   3.4 WNW | 293 0.00 7.0   0.0 65.1   0.8 0.00 56.6   1.1 65.3   3.5 18.1   1.7
Blue Diamond 5/10/26 0500 57.8   23.0 27   13 24.3   3.9 3.7   4.0 WNW | 292 5.7   10.2 WNW | 303 0.00 3.0   0.0 74.7   0.7 0.00 57.5   22.1 69.8   13.5 7.6   11.6
Artesian Sub 5/10/26 0500 77.7   2.2 15   6 26.2   6.2 0.0   1.4 N | 0 0.0   4.5 SSW | 204 0.00 13.1   0.0 76.4   0.9 0.00 77.5   2.2 86.3   1.4 10.3   5.8
North Henderson 5/10/26 0500 82.9   0.6 12   7 24.7   12.3 2.3   1.0 ESE | 105 4.8   4.1 ENE | 60 0.00 9.7   0.1 84.7   1.9 0.00 82.6   1.1 90.9   1.4 10.7   4.5
Sandy Valley 5/10/26 0500 70.3   4.2 17   8 23.3   12.5 2.6   1.1 E | 99 5.0   0.1 ENE | 75 0.00 4.6   0.1 85.2   1.9 0.00 67.2   5.6 83.3   1.5 9.4   3.4
Searchlight 5/10/26 0510 71.5   1.0 19   8 26.6   7.9 8.2   1.8 N | 11 10.6   1.9 N | 4 0.00 4.9   0.0 82.3   1.8 0.00 68.6   1.3 80.0   2.7 13.0   0.6
Laughlin 5/10/26 0500 83.5   1.8 12   8 25.8   13.7 9.4   7.9 N | 2 11.6   7.5 NNE | 17 0.00 4.2   0.1 88.6   1.5 0.00 81.3   2.1 90.6   0.8 13.0   2.7
31Mission Hills 5/10/26 0500 77.3   4.1 13   4 23.2   9.1 5.4   1.8 W | 275 6.8   2.1 W | 276 0.00 3.7   0.0 84.7   0.8 0.00 76.6   3.5 83.2   4.3 10.3   1.6
32 Enterprise Sierra Cliffs 5/10/26 0500 77.4   1.5 11   1 19.5   4.0 3.4   1.9 SSW | 208 5.1   2.4 SSW | 206 0.00 2.2   0.0 79.4   0.8 0.00 75.5   1.5 84.8   0.6 12.8   5.6
Max     83.5 94 41.7 12.1 - 16.2 - 0.00 44.3 88.6 0.03 82.6 90.9 18.1
Avg     56.0 33 24.0 2.6 - 4.5 - 0.00 13.0 62.7 - - - -
Min     32.3 10 13.4 0.0 - 0.0 - 0.00 1.8 32.0 0.00 28.9 41.6 0.0

Latest Observation

67 Stations

Daily Data
as of 5/10/26 5:08 AM PDT
Station Date Daily Max Temp (°F) Daily Min Temp (°F) Daily Max RH (%) Daily Min RH (%) Wind Spd (mph) Wind Dir (°) Daily Max Wind (mph) Max Wind Dir (°) Time of Max Wind Daily Rain (In) Weekly Precip (In) Season Precip (In) Soil Moist (%) Fuel Temp (°F) Fuel Moisture (%) MinBV Day (V)
Hobart Mills 12/23/25 51.8   11.3 33.9   2.1 88   12 42   34 2.1   1.7 SW | 224 18.4   8.6 WSW | 240 2307 0.65 6.21 15.12 - 37.6   2.8 42   19 8.0   0.7
Prosser Dam 5/9/26 74.8   3.0 35.9   7.2 98   1 17   1 2.4   0.8 NW | 316 16.2   6.1 NW | 316 1539 0.00 0.73 8.47 21.7   1.1 60.3   4.2 9   0 12.6   0.0
West Incline Village 5/9/26 69.0   4.1 44.6   2.1 75   15 18   2 3.0   0.0 ENE | 62 16.5   1.7 S | 181 1236 0.00 1.24 7.94 32.3   0.6 62.1   3.6 6   0 12.5   0.0
Incline Village (Fairview Blvd) 5/9/26 72.4   5.8 46.7   2.2 75   16 16   4 1.6   0.3 NE | 52 13.4   2.0 SSE | 149 1422 0.00 1.19 7.48 25.9   0.3 63.8   4.4 7   1 12.6   0.0
Incline Village (Diamond Peak) 5/9/26 65.7   2.5 49.7   4.6 59   1 16   5 5.6   4.8 E | 80 19.0   11.5 ENE | 68 0959 0.00 0.10 0.51 9.2   0.1 -11.4   0.0 - 12.4   0.0
Incline Village (Mill Creek) 5/9/26 72.3   5.3 45.4   4.4 92   19 15   3 1.6   0.5 NE | 51 15.6   0.1 N | 4 1047 0.00 1.22 7.18 10.9   0.2 - - 12.4   0.0
Incline Village (Lakeshore Blvd) 5/9/26 68.6   4.3 39.5   5.4 86   4 24   4 1.5   0.2 ENE | 62 13.7   8.2 NE | 56 1035 0.00 1.07 7.20 30.7   0.7 64.3   2.1 13   0 12.3   0.0
Glenbrook 5/9/26 70.3   3.8 40.7   3.2 90   2 19   1 2.2   0.5 SW | 222 17.4   11.7 W | 263 1003 0.00 1.09 5.88 44.3   0.0 55.5   1.6 11   1 12.5   0.0
Zephyr Cove 5/9/26 68.3   0.1 44.5   4.8 79   0 22   4 0.0   0.0 N | 0 7.1   0.2 SSW | 202 1059 0.00 0.02 0.68 - 48.4   1.6 - 12.6   0.0
Kingsbury Grade 5/9/26 69.9   0.7 42.9   6.4 75   12 15   3 3.3   2.0 E | 91 19.1   5.5 SE | 140 1051 0.00 0.95 5.82 6.8   0.2 59.4   4.0 6   2 12.5   0.0
South Daggett Pass (Ridge) 5/9/26 65.9   3.3 49.3   8.2 57   18 16   4 4.1   1.6 SE | 128 15.6   1.2 ENE | 73 1132 0.00 0.73 4.05 6.7   0.0 59.5   5.2 7   2 12.5   0.0
Palomino Valley 5/9/26 81.7   1.9 41.4   0.2 71   2 12   3 3.5   1.1 NW | 323 20.2   4.1 NNW | 344 1515 0.00 0.27 1.41 7.1   0.1 66.2   0.5 0   0 12.6   0.0
East Cold Springs 5/9/26 77.2   3.0 50.5   5.4 60   2 13   4 4.7   3.6 NNW | 330 27.0   4.3 ESE | 109 1517 0.00 0.61 2.09 1.8   0.0 65.0   0.1 8   0 12.7   0.0
Peavine 5/9/26 74.5   3.8 46.0   0.7 55   2 13   6 3.9   0.9 S | 189 16.2   7.9 ESE | 118 1156 0.00 0.65 2.14 - - - 12.5   0.0
West Verdi Peak 5/9/26 74.1   2.6 48.4   4.7 66   1 14   2 2.3   0.9 NE | 39 16.0   3.6 ESE | 107 1255 0.00 0.75 6.39 19.0   1.3 63.1   0.1 7   0 12.6   0.0
West Verdi 5/9/26 78.3   2.2 45.4   2.8 73   12 12   2 2.9   0.9 NNE | 19 14.5   5.7 ENE | 78 1311 0.00 0.65 5.92 7.9   0.1 67.9   3.8 9   0 12.6   0.0
South Verdi 5/9/26 76.0   2.1 51.7   11.1 58   10 13   0 7.7   3.9 WSW | 248 28.8   1.7 WSW | 248 1335 0.00 0.53 4.81 16.2   0.2 66.4   2.0 7   0 12.7   0.0
Northwest Reno 5/9/26 79.2   2.3 54.3   5.5 60   15 11   1 5.9   2.8 NE | 50 34.4   6.4 E | 95 1343 0.00 0.29 1.33 24.1   0.1 -17.7   0.1 - 12.5   0.1
North Lawton 5/9/26 78.9   1.9 48.0   0.8 66   14 12   1 5.4   2.0 NNW | 333 17.9   4.1 NNE | 30 1321 0.00 0.41 2.14 - - - 12.5   0.0
West Reno (Mogul) 5/9/26 78.0   0.8 48.5   1.1 68   16 11   2 5.4   0.7 ENE | 68 21.0   3.7 NE | 52 1235 0.00 0.32 4.24 36.4   0.6 68.8   0.2 2   0 12.5   0.0
Caughlin (Hunter Lake Trail) 9/15/25 78.6   1.3 52.5   3.7 58   7 23   2 4.2   2.5 S | 173 13.0   20.5 NNE | 31 1309 0.00 0.32 8.05 15.7   0.1 67.4   0.5 7   1 12.7   0.0
ArrowCreek 5/9/26 78.6   1.6 50.4   4.4 59   8 11   2 4.3   1.0 S | 184 15.3   10.7 NE | 45 1201 0.00 0.68 5.25 - - - 12.4   0.0
Tracy 5/9/26 82.5   1.3 52.2   0.7 61   18 10   0 3.9   4.1 ENE | 74 20.5   3.5 E | 90 1446 0.00 0.37 1.23 8.1   0.0 71.1   0.8 6   0 12.7   0.0
Virginia Highlands 5/9/26 74.4   1.6 53.6   4.2 52   3 12   3 4.2   0.4 ESE | 121 16.3   3.4 SE | 131 1219 0.00 0.41 2.15 8.1   0.2 67.5   2.4 6   0 12.6   0.0
Virginia City 5/9/26 73.3   2.2 53.6   0.4 44   4 13   2 4.3   4.9 N | 7 27.1   2.4 NNW | 340 0109 0.00 0.41 1.86 8.4   0.0 65.5   0.1 4   0 12.6   0.0
Six Mile Canyon 9/8/25 98.8   16.5 50.2   7.6 44   3 11   1 7.2   0.3 WSW | 252 27.0   4.6 SSE | 159 1325 0.00 0.00 0.89 12.6   0.1 69.7   3.0 4   0 12.4   0.2
Mt Rose Highway 4/29/26 56.6   7.9 35.6   4.1 63   16 31   6 2.2   0.0 NW | 305 10.8   4.2 NE | 35 1152 0.00 0.08 4.93 24.3   0.3 47.6   8.0 3   0 12.4   0.0
Pleasant Valley 5/9/26 81.7   4.8 47.6   6.6 67   10 12   4 2.5   1.4 SSW | 211 13.2   6.5 SSW | 201 1338 0.00 0.44 2.52 2.9   0.0 70.5   2.7 7   0 12.6   0.0
New Washoe City 5/9/26 78.1   2.6 47.9   3.6 61   9 11   3 3.5   1.5 N | 352 14.2   6.7 W | 263 1444 0.00 0.44 1.76 4.5   0.0 67.6   2.7 7   0 12.6   0.0
Franktown Creek 5/9/26 79.2   3.5 45.4   2.2 72   15 13   2 1.1   0.9 NW | 316 9.2   9.3 NNE | 25 1226 0.00 0.62 5.97 11.2   0.0 61.7   1.4 8   0 12.6   0.0
Musgrove Creek 5/9/26 75.3   2.6 52.2   0.4 59   12 14   1 1.6   1.3 W | 261 11.6   3.6 NE | 43 1239 0.00 0.92 8.00 41.0   2.4 65.0   0.0 11   3 12.5   0.0
East Carson 11/22/24 63.8   0.3 41.7   4.6 85   21 21   9 14.9   6.0 SW | 224 46.6   12.7 S | 171 1835 0.05 0.05 4.48 2.5   0.0 53.9   0.3 9   0 12.6   0.0
Kings Canyon 5/9/26 77.4   3.1 47.3   3.9 64   10 16   4 3.5   1.2 S | 178 12.5   6.3 NNW | 330 1555 0.00 0.64 4.52 14.3   0.4 69.4   2.6 4   0 12.6   0.0
Carson City (Voltaire Canyon) 5/9/26 78.4   2.8 53.8   1.8 60   3 13   2 4.1   4.1 N | 359 14.9   10.3 ENE | 59 1653 0.00 1.24 1.33 2.8   0.0 -10.9   0.0 - 12.6   0.0
Jacks Valley 5/9/26 77.7   2.7 47.5   1.1 63   2 15   2 2.6   2.5 ENE | 57 15.6   8.2 NE | 47 1012 0.00 0.51 2.50 13.2   0.3 66.6   1.3 6   1 12.6   0.0
Genoa 5/9/26 81.1   1.8 47.9   3.2 68   1 15   2 1.0   0.6 SW | 227 9.3   6.7 NE | 34 1449 0.00 0.47 5.22 7.0   0.7 66.6   1.4 8   1 12.3   0.0
South Genoa (Walleys Hot Springs) 5/9/26 80.3   2.5 43.3   3.0 90   0 13   0 2.3   2.3 NNW | 334 11.3   17.5 NW | 304 2013 0.00 0.40 3.35 14.0   0.0 68.0   1.8 7   0 12.5   0.0
SW Gardnerville (HWY 88) 5/9/26 77.9   1.7 41.4   4.1 89   3 17   3 3.4   1.8 WNW | 295 10.8   12.3 WNW | 296 1454 0.00 0.03 0.60 3.4   0.0 63.2   1.7 9   0 12.4   0.0
Sheridan 5/9/26 78.4   0.4 45.3   2.7 75   7 17   4 3.4   0.5 NW | 322 10.6   15.6 N | 0 1451 0.00 0.40 3.46 3.6   0.7 69.3   2.0 7   0 12.6   0.0
Ruhenstroth 5/9/26 79.8   1.8 44.8   1.8 71   7 16   4 3.4   0.8 W | 272 15.2   7.5 NW | 308 1416 0.00 0.64 2.06 12.4   0.1 65.0   2.2 8   0 12.6   0.0
Double Spring 5/9/26 75.1   1.3 40.4   1.6 76   3 14   2 3.7   2.1 WSW | 253 15.9   16.1 N | 6 1751 0.00 0.78 2.44 31.2   0.1 61.4   0.1 8   0 12.6   0.0
North Topaz Lake 5/9/26 77.5   1.2 54.4   2.2 50   13 12   2 3.9   2.6 ESE | 122 19.4   8.8 SE | 139 1120 0.00 0.54 1.68 9.6   0.0 69.4   1.0 5   0 12.6   0.0
Wild Oat Mountain 5/9/26 74.8   0.1 53.3   1.8 49   7 12   0 4.1   1.7 NE | 46 15.2   9.2 ENE | 61 1755 0.00 0.52 1.77 16.9   0.1 67.9   1.8 6   0 12.6   0.0
Smith Valley 5/9/26 79.3   1.5 48.0   2.5 60   3 14   4 4.1   0.5 NNW | 333 15.5   6.0 W | 264 2242 0.00 0.51 1.37 5.9   0.0 70.6   3.6 7   1 12.6   0.0
Pine Grove Mountain 5/9/26 65.3   1.5 47.3   0.1 46   10 17   5 5.4   3.3 NNE | 22 18.3   7.1 NNW | 338 1619 0.00 0.55 0.91 20.6   0.7 60.3   0.3 4   1 12.7   0.0
Paradise Hill 5/9/26 79.5   0.8 42.2   0.2 41   6 12   2 4.5   2.3 NE | 35 19.8   7.2 NNE | 18 2350 0.00 0.00 2.33 8.0   0.0 70.9   3.1 5   0 12.6   0.0
Winnemucca 5/9/26 79.0   0.5 49.7   2.1 30   10 8   5 4.9   2.9 NNE | 26 15.2   12.9 N | 6 1226 0.00 0.00 2.90 5.9   0.0 70.7   2.4 1   0 12.6   0.0
NE Elko 5/9/26 75.2   2.5 34.4   0.6 57   14 8   7 4.1   0.8 NW | 307 21.6   3.5 WNW | 282 1457 0.00 0.04 2.33 12.5   0.0 59.2   2.1 3   1 12.6   0.1
North Elko 5/9/26 74.0   1.1 46.5   0.5 40   9 10   5 6.4   1.2 NNW | 335 19.5   6.6 WNW | 286 1503 0.00 0.44 2.48 28.6   0.1 63.4   2.8 4   1 12.6   0.0
South Elko 5/9/26 - 49.6   3.2 99   8 14   4 6.5   0.0 NNE | 15 22.1   3.9 WNW | 299 1608 0.00 0.04 2.71 18.4   0.1 65.3   1.0 3   1 12.6   0.0
Lamoille 1/27/26 42.4   2.7 21.5   6.4 60   0 25   6 2.6   0.5 SE | 125 8.2   4.1 SE | 139 0137 0.00 0.00 0.67 12.3   0.2 26.9   1.3 11   0 8.5   2.8
Reid Gardner Sub 5/9/26 101.3   0.1 55.8   1.5 40   2 9   0 2.8   0.5 WSW | 243 15.6   1.5 SSW | 205 1730 0.00 0.00 0.56 26.3   0.1 88.3   10.0 1   0 12.7   0.0
Corn Creek 5/9/26 95.0   1.1 73.1   1.9 19   1 10   1 7.5   2.6 W | 259 21.7   6.2 WNW | 303 1558 0.00 0.00 0.63 4.0   0.0 88.4   2.3 1   0 12.6   0.0
Lucky Strike 5/9/26 82.7   0.2 65.8   3.4 21   3 10   0 7.3   3.3 NW | 308 24.1   11.2 N | 4 1640 0.00 0.00 1.21 4.6   0.0 79.8   0.5 2   0 12.6   0.0
Lower Angel Peak 5/9/26 77.6   0.9 55.0   1.8 29   0 13   0 5.1   0.6 SW | 222 18.6   10.3 NW | 322 1257 0.00 0.00 1.93 9.8   0.2 70.4   0.8 2   0 12.6   0.0
Angel Peak 5/9/26 67.9   5.9 56.2   0.7 27   2 17   1 3.7   4.8 WNW | 301 18.3   14.8 WNW | 296 1716 0.00 0.02 84.72 3.8   0.5 63.4   4.0 4   0 12.6   0.1
Upper Kyle Canyon 5/9/26 71.1   1.3 54.2   6.0 35   3 17   4 5.1   0.4 E | 81 20.1   2.0 ESE | 118 1206 0.49 0.49 5.08 13.0   0.3 72.8   6.6 6   0 12.7   0.1
Mt Charleston 5/9/26 71.9   0.3 55.5   3.6 32   4 16   4 3.1   0.6 W | 271 15.8   0.7 ESE | 105 1325 0.00 0.00 5.28 18.2   0.0 68.4   1.0 28   0 12.6   0.0
Mid Kyle Canyon 5/9/26 78.1   0.1 57.7   1.3 29   1 14   0 7.4   1.6 WNW | 300 20.7   11.3 ENE | 72 1335 0.02 0.02 2.10 6.9   0.1 76.0   0.3 7   2 12.8   0.0
Blue Diamond 5/9/26 92.9   0.5 69.8   1.2 28   1 10   2 5.8   1.7 NW | 326 33.4   8.9 SE | 134 1346 0.00 0.00 0.85 3.1   0.0 86.9   0.1 2   1 12.6   0.0
Artesian Sub 5/9/26 102.5   0.3 74.8   4.6 22   4 8   0 1.6   0.4 WSW | 249 13.2   2.1 NNW | 345 2344 0.00 0.00 0.35 13.1   0.0 - 0   0 12.7   0.0
North Henderson 5/9/26 102.2   0.3 79.7   6.8 22   3 8   1 4.2   0.8 W | 259 16.6   3.1 W | 281 1412 0.00 0.00 0.52 9.6   0.1 97.4   4.7 3   0 12.6   0.1
Sandy Valley 5/9/26 96.0   0.9 69.4   0.7 28   4 10   1 4.6   0.8 NW | 316 21.5   10.4 WNW | 303 1648 0.00 0.00 0.62 4.6   0.0 86.5   1.9 3   0 12.6   0.0
Searchlight 5/9/26 93.5   0.6 69.9   1.4 28   3 11   2 6.3   0.6 NNE | 22 45.0   15.2 NNE | 27 1441 0.00 0.00 0.51 4.8   0.1 88.4   0.2 1   0 12.6   0.0
Laughlin 5/9/26 106.7   1.0 77.2   3.6 25   3 10   1 4.8   0.6 S | 191 21.7   2.1 SSE | 161 1521 0.00 0.00 0.29 4.2   0.0 93.9   2.2 3   0 12.8   0.0
31Mission Hills 5/9/26 98.0   0.4 75.6   1.4 21   3 8   0 4.1   1.3 ENE | 57 21.9   6.6 ENE | 66 1610 0.00 - 0.00 3.8   0.0 91.4   0.8 5   0 13.2   0.0
32 Enterprise Sierra Cliffs 5/9/26 95.0   0.4 75.2   2.1 18   1 6   0 6.0   1.1 SW | 222 20.5   5.2 W | 278 2227 0.00 - 0.00 2.3   0.0 88.7   0.9 5   1 13.2   0.0
Max   106.7 79.7 99 24 7.7 - 45.0 - - 0.49 - 84.72 44.3 97.4 28 13.2
Avg   - - - - 4.0 - - - - - - - 13.1 65.5 6 -
Min   65.3 34.4 18 6 0.0 - 7.1 - - 0.00 - 0.00 1.8 -17.7 0 12.3

Fosberg 6Hr Max

Map

Hourly Data

Fosberg 6Hr Max

Map

Hourly Data